Airfield :
LOGIN :

Register | Disclaimer

   EN    FR    IT 

 










Legend :    VFR   Marginal VFR   IFR   Intensive IFR   Very Intensive IFR
Visi :
Ceiling :
>= 8 km
>= 3000ft
5 to 8 km
1000 to 3000 ft
1500m to 5 km
500 to 1000 ft
800 to 1500m
200 to 500 ft
< 800m
< 200 ft
Symbols :   Thunderstorms  Fog  Heavy snow  Heavy precipitations  Wind > 20 kt
SIGMETs :     Misc.  Thunderstorms  Icing  Turbulence  Mountain Waves  Volcanic Ashes







- Airport Elevation : 1504 ft
- IATA code : PNA


LEPP - Noain Pamplona

CURRENT METAR :
  • 210700Z 30005KT 270V330 9999 FEW018 BKN028 03/02 Q1019

EXPIRED METARs :
  • 210630Z 31008KT 9999 FEW018 BKN030 03/02 Q1019
  • 210600Z 32007KT 9999 FEW018 BKN035 03/02 Q1019
  • 210530Z 32005KT 290V350 9999 FEW018 BKN045 03/01 Q1018
  • 210500Z 33008KT 9999 FEW018 BKN042 03/02 Q1018
  • 210430Z 30003KT 9999 SCT018 BKN042 03/02 Q1018
  • 210400Z AUTO 26004KT 7000 SCT019/// BKN036/// OVC044/// 03/02 Q1019

TAF TAF LEPP
Valid from the 21 at 03:00 until the 22 at 03:00 UTC


210200Z 2103/2203 32007KT 9999 SCT015 BKN030 TX07/2114Z TN00/2203Z
PROB30
TEMPO 2103/2109 RA SHRA SCT030TCU
PROB40
TEMPO 2103/2109 3000 BR BKN010
No reported NOTAMs for that airfield.



MET'MAP, your aeronautical weather chart ! - Copyright ORBIFLY December 2007 - Disclaimer

ORBIFLY MET'MAP TEAM :

Programming & Development : Alexandra Zaïnal
Concept & Development : Baudouin d'Aumeries
Co-Development & Prog : Marc-Olivier Méhu
Technical & hardware support : Manuel Goepfert

Contact : metmap@orbifly.com




SOURCES & CREDITS :

   NOAA